sensor_id;sensor_type;location;lat;lon;timestamp;P1;durP1;ratioP1;P2;durP2;ratioP2
66487;SDS011;53304;54.550;18.526;2023-05-13T00:00:46;9.23;;;5.18;;
66487;SDS011;53304;54.550;18.526;2023-05-13T00:03:11;11.05;;;4.88;;
66487;SDS011;53304;54.550;18.526;2023-05-13T00:05:36;9.48;;;5.40;;
66487;SDS011;53304;54.550;18.526;2023-05-13T00:08:05;9.80;;;4.95;;
66487;SDS011;53304;54.550;18.526;2023-05-13T00:10:33;8.50;;;4.93;;
66487;SDS011;53304;54.550;18.526;2023-05-13T00:12:59;7.55;;;4.97;;
66487;SDS011;53304;54.550;18.526;2023-05-13T00:15:29;8.07;;;4.95;;
66487;SDS011;53304;54.550;18.526;2023-05-13T00:17:57;8.65;;;4.72;;
66487;SDS011;53304;54.550;18.526;2023-05-13T00:20:27;9.98;;;4.95;;
66487;SDS011;53304;54.550;18.526;2023-05-13T00:22:52;8.77;;;4.97;;
66487;SDS011;53304;54.550;18.526;2023-05-13T00:25:20;10.38;;;4.85;;
66487;SDS011;53304;54.550;18.526;2023-05-13T00:27:48;8.75;;;5.07;;
66487;SDS011;53304;54.550;18.526;2023-05-13T00:30:13;8.77;;;4.97;;
66487;SDS011;53304;54.550;18.526;2023-05-13T00:32:38;8.43;;;4.93;;
66487;SDS011;53304;54.550;18.526;2023-05-13T00:35:08;7.22;;;4.45;;
66487;SDS011;53304;54.550;18.526;2023-05-13T00:37:36;6.93;;;4.45;;
66487;SDS011;53304;54.550;18.526;2023-05-13T00:40:04;8.80;;;5.05;;
66487;SDS011;53304;54.550;18.526;2023-05-13T00:42:30;8.32;;;4.68;;
66487;SDS011;53304;54.550;18.526;2023-05-13T00:44:55;7.20;;;4.72;;
66487;SDS011;53304;54.550;18.526;2023-05-13T00:47:23;6.75;;;4.45;;
66487;SDS011;53304;54.550;18.526;2023-05-13T00:49:49;7.07;;;4.45;;
66487;SDS011;53304;54.550;18.526;2023-05-13T00:52:14;8.05;;;4.78;;
66487;SDS011;53304;54.550;18.526;2023-05-13T00:54:40;7.15;;;4.40;;
66487;SDS011;53304;54.550;18.526;2023-05-13T00:57:06;9.57;;;4.63;;
66487;SDS011;53304;54.550;18.526;2023-05-13T00:59:31;8.68;;;4.70;;
66487;SDS011;53304;54.550;18.526;2023-05-13T01:01:59;6.63;;;4.50;;
66487;SDS011;53304;54.550;18.526;2023-05-13T01:12:33;8.07;;;4.20;;
66487;SDS011;53304;54.550;18.526;2023-05-13T01:17:38;9.32;;;4.63;;
66487;SDS011;53304;54.550;18.526;2023-05-13T01:20:09;8.93;;;4.57;;
66487;SDS011;53304;54.550;18.526;2023-05-13T01:22:38;8.75;;;4.25;;
66487;SDS011;53304;54.550;18.526;2023-05-13T01:25:08;8.35;;;4.55;;
66487;SDS011;53304;54.550;18.526;2023-05-13T01:27:33;7.78;;;4.32;;
66487;SDS011;53304;54.550;18.526;2023-05-13T01:29:59;7.68;;;4.60;;
66487;SDS011;53304;54.550;18.526;2023-05-13T01:32:24;6.80;;;4.30;;
66487;SDS011;53304;54.550;18.526;2023-05-13T01:34:50;8.82;;;4.35;;
66487;SDS011;53304;54.550;18.526;2023-05-13T01:37:19;7.40;;;4.43;;
66487;SDS011;53304;54.550;18.526;2023-05-13T01:39:45;7.40;;;4.40;;
66487;SDS011;53304;54.550;18.526;2023-05-13T01:42:11;7.53;;;4.25;;
66487;SDS011;53304;54.550;18.526;2023-05-13T01:44:36;6.75;;;4.53;;
66487;SDS011;53304;54.550;18.526;2023-05-13T01:47:01;6.85;;;4.00;;
66487;SDS011;53304;54.550;18.526;2023-05-13T01:49:31;6.88;;;4.35;;
66487;SDS011;53304;54.550;18.526;2023-05-13T01:51:59;7.88;;;4.65;;
66487;SDS011;53304;54.550;18.526;2023-05-13T01:54:25;7.63;;;4.50;;
66487;SDS011;53304;54.550;18.526;2023-05-13T01:56:55;6.93;;;4.10;;
66487;SDS011;53304;54.550;18.526;2023-05-13T01:59:20;7.47;;;4.65;;
66487;SDS011;53304;54.550;18.526;2023-05-13T02:01:46;6.72;;;4.07;;
66487;SDS011;53304;54.550;18.526;2023-05-13T02:04:11;7.45;;;4.07;;
66487;SDS011;53304;54.550;18.526;2023-05-13T02:06:37;7.90;;;4.20;;
66487;SDS011;53304;54.550;18.526;2023-05-13T02:09:04;7.50;;;4.20;;
66487;SDS011;53304;54.550;18.526;2023-05-13T02:11:32;7.32;;;4.50;;
66487;SDS011;53304;54.550;18.526;2023-05-13T02:14:02;7.03;;;4.35;;
66487;SDS011;53304;54.550;18.526;2023-05-13T02:16:30;6.38;;;4.07;;
66487;SDS011;53304;54.550;18.526;2023-05-13T02:18:55;6.05;;;3.83;;
66487;SDS011;53304;54.550;18.526;2023-05-13T02:21:23;7.03;;;4.25;;
66487;SDS011;53304;54.550;18.526;2023-05-13T02:23:49;7.10;;;4.38;;
66487;SDS011;53304;54.550;18.526;2023-05-13T02:26:14;7.72;;;4.60;;
66487;SDS011;53304;54.550;18.526;2023-05-13T02:28:45;6.55;;;3.90;;
66487;SDS011;53304;54.550;18.526;2023-05-13T02:31:10;6.18;;;3.97;;
66487;SDS011;53304;54.550;18.526;2023-05-13T02:33:38;7.70;;;4.63;;
66487;SDS011;53304;54.550;18.526;2023-05-13T02:36:08;8.77;;;4.38;;
66487;SDS011;53304;54.550;18.526;2023-05-13T02:38:33;5.53;;;3.70;;
66487;SDS011;53304;54.550;18.526;2023-05-13T02:40:59;6.40;;;4.05;;
66487;SDS011;53304;54.550;18.526;2023-05-13T02:43:27;6.68;;;4.10;;
66487;SDS011;53304;54.550;18.526;2023-05-13T02:45:55;6.20;;;3.60;;
66487;SDS011;53304;54.550;18.526;2023-05-13T02:48:21;6.78;;;3.92;;
66487;SDS011;53304;54.550;18.526;2023-05-13T02:50:46;6.53;;;3.97;;
66487;SDS011;53304;54.550;18.526;2023-05-13T02:53:11;6.22;;;4.10;;
66487;SDS011;53304;54.550;18.526;2023-05-13T02:55:39;7.70;;;4.35;;
66487;SDS011;53304;54.550;18.526;2023-05-13T02:58:08;6.28;;;3.92;;
66487;SDS011;53304;54.550;18.526;2023-05-13T03:00:36;7.13;;;3.95;;
66487;SDS011;53304;54.550;18.526;2023-05-13T03:03:02;7.95;;;4.28;;
66487;SDS011;53304;54.550;18.526;2023-05-13T03:05:32;7.10;;;4.18;;
66487;SDS011;53304;54.550;18.526;2023-05-13T03:07:58;6.72;;;4.30;;
66487;SDS011;53304;54.550;18.526;2023-05-13T03:10:23;7.82;;;4.35;;
66487;SDS011;53304;54.550;18.526;2023-05-13T03:12:51;5.32;;;3.80;;
66487;SDS011;53304;54.550;18.526;2023-05-13T03:15:16;7.55;;;4.43;;
66487;SDS011;53304;54.550;18.526;2023-05-13T03:17:42;7.55;;;4.18;;
66487;SDS011;53304;54.550;18.526;2023-05-13T03:20:08;6.88;;;4.47;;
66487;SDS011;53304;54.550;18.526;2023-05-13T03:22:36;5.70;;;3.70;;
66487;SDS011;53304;54.550;18.526;2023-05-13T03:25:07;7.22;;;4.25;;
66487;SDS011;53304;54.550;18.526;2023-05-13T03:27:35;11.18;;;4.13;;
66487;SDS011;53304;54.550;18.526;2023-05-13T03:30:00;6.15;;;4.00;;
66487;SDS011;53304;54.550;18.526;2023-05-13T03:32:26;7.68;;;3.90;;
66487;SDS011;53304;54.550;18.526;2023-05-13T03:34:57;8.63;;;4.20;;
66487;SDS011;53304;54.550;18.526;2023-05-13T03:37:25;8.30;;;3.90;;
66487;SDS011;53304;54.550;18.526;2023-05-13T03:39:53;6.28;;;3.90;;
66487;SDS011;53304;54.550;18.526;2023-05-13T03:42:18;5.93;;;3.78;;
66487;SDS011;53304;54.550;18.526;2023-05-13T03:44:46;5.57;;;3.83;;
66487;SDS011;53304;54.550;18.526;2023-05-13T03:47:12;6.65;;;3.85;;
66487;SDS011;53304;54.550;18.526;2023-05-13T03:49:40;6.05;;;3.95;;
66487;SDS011;53304;54.550;18.526;2023-05-13T03:52:05;6.63;;;4.07;;
66487;SDS011;53304;54.550;18.526;2023-05-13T03:54:33;6.18;;;3.88;;
66487;SDS011;53304;54.550;18.526;2023-05-13T03:57:01;6.55;;;3.80;;
66487;SDS011;53304;54.550;18.526;2023-05-13T03:59:29;6.32;;;3.72;;
66487;SDS011;53304;54.550;18.526;2023-05-13T04:01:59;6.30;;;3.60;;
66487;SDS011;53304;54.550;18.526;2023-05-13T04:04:25;5.93;;;3.63;;
66487;SDS011;53304;54.550;18.526;2023-05-13T04:06:50;6.65;;;3.83;;
66487;SDS011;53304;54.550;18.526;2023-05-13T04:09:18;7.35;;;3.90;;
66487;SDS011;53304;54.550;18.526;2023-05-13T04:11:45;6.20;;;3.75;;
66487;SDS011;53304;54.550;18.526;2023-05-13T04:14:11;6.22;;;3.75;;
66487;SDS011;53304;54.550;18.526;2023-05-13T04:16:36;7.05;;;4.00;;
66487;SDS011;53304;54.550;18.526;2023-05-13T04:19:02;6.32;;;3.67;;
66487;SDS011;53304;54.550;18.526;2023-05-13T04:21:29;5.70;;;3.38;;
66487;SDS011;53304;54.550;18.526;2023-05-13T04:23:55;12.77;;;3.85;;
66487;SDS011;53304;54.550;18.526;2023-05-13T04:26:25;6.18;;;3.45;;
66487;SDS011;53304;54.550;18.526;2023-05-13T04:28:50;6.78;;;3.78;;
66487;SDS011;53304;54.550;18.526;2023-05-13T04:31:18;5.93;;;3.55;;
66487;SDS011;53304;54.550;18.526;2023-05-13T04:33:48;5.43;;;3.35;;
66487;SDS011;53304;54.550;18.526;2023-05-13T04:36:14;6.60;;;3.60;;
66487;SDS011;53304;54.550;18.526;2023-05-13T04:38:39;5.50;;;3.55;;
66487;SDS011;53304;54.550;18.526;2023-05-13T04:41:07;7.43;;;3.70;;
66487;SDS011;53304;54.550;18.526;2023-05-13T04:43:32;8.50;;;3.75;;
66487;SDS011;53304;54.550;18.526;2023-05-13T04:46:00;5.78;;;3.40;;
66487;SDS011;53304;54.550;18.526;2023-05-13T04:48:28;6.32;;;3.40;;
66487;SDS011;53304;54.550;18.526;2023-05-13T04:50:54;6.10;;;3.63;;
66487;SDS011;53304;54.550;18.526;2023-05-13T04:53:22;6.25;;;3.40;;
66487;SDS011;53304;54.550;18.526;2023-05-13T04:55:47;6.75;;;3.70;;
66487;SDS011;53304;54.550;18.526;2023-05-13T04:58:21;6.00;;;3.63;;
66487;SDS011;53304;54.550;18.526;2023-05-13T05:00:46;6.05;;;3.53;;
66487;SDS011;53304;54.550;18.526;2023-05-13T05:03:14;6.47;;;3.55;;
66487;SDS011;53304;54.550;18.526;2023-05-13T05:05:42;5.95;;;3.70;;
66487;SDS011;53304;54.550;18.526;2023-05-13T05:08:07;5.60;;;3.53;;
66487;SDS011;53304;54.550;18.526;2023-05-13T05:10:35;7.05;;;3.63;;
66487;SDS011;53304;54.550;18.526;2023-05-13T05:13:02;7.15;;;3.80;;
66487;SDS011;53304;54.550;18.526;2023-05-13T05:15:30;5.65;;;3.67;;
66487;SDS011;53304;54.550;18.526;2023-05-13T05:17:55;5.82;;;3.45;;
66487;SDS011;53304;54.550;18.526;2023-05-13T05:20:23;5.45;;;3.45;;
66487;SDS011;53304;54.550;18.526;2023-05-13T05:22:52;6.70;;;3.92;;
66487;SDS011;53304;54.550;18.526;2023-05-13T05:25:17;7.35;;;3.53;;
66487;SDS011;53304;54.550;18.526;2023-05-13T05:27:45;5.28;;;3.13;;
66487;SDS011;53304;54.550;18.526;2023-05-13T05:30:13;6.70;;;3.42;;
66487;SDS011;53304;54.550;18.526;2023-05-13T05:32:41;7.28;;;3.50;;
66487;SDS011;53304;54.550;18.526;2023-05-13T05:35:08;6.25;;;3.35;;
66487;SDS011;53304;54.550;18.526;2023-05-13T05:37:34;5.75;;;3.40;;
66487;SDS011;53304;54.550;18.526;2023-05-13T05:39:59;6.90;;;3.50;;
66487;SDS011;53304;54.550;18.526;2023-05-13T05:42:27;5.20;;;3.17;;
66487;SDS011;53304;54.550;18.526;2023-05-13T05:44:52;5.93;;;3.28;;
66487;SDS011;53304;54.550;18.526;2023-05-13T05:47:20;5.78;;;3.40;;
66487;SDS011;53304;54.550;18.526;2023-05-13T05:49:47;4.93;;;3.17;;
66487;SDS011;53304;54.550;18.526;2023-05-13T05:52:13;7.35;;;3.55;;
66487;SDS011;53304;54.550;18.526;2023-05-13T05:54:38;6.70;;;3.28;;
66487;SDS011;53304;54.550;18.526;2023-05-13T05:57:06;8.73;;;4.57;;
66487;SDS011;53304;54.550;18.526;2023-05-13T05:59:31;10.55;;;4.72;;
66487;SDS011;53304;54.550;18.526;2023-05-13T06:01:57;8.18;;;4.65;;
66487;SDS011;53304;54.550;18.526;2023-05-13T06:04:22;9.88;;;4.97;;
66487;SDS011;53304;54.550;18.526;2023-05-13T06:06:50;9.93;;;5.45;;
66487;SDS011;53304;54.550;18.526;2023-05-13T06:09:20;13.70;;;5.57;;
66487;SDS011;53304;54.550;18.526;2023-05-13T06:11:45;15.48;;;5.57;;
66487;SDS011;53304;54.550;18.526;2023-05-13T06:14:13;11.32;;;5.30;;
66487;SDS011;53304;54.550;18.526;2023-05-13T06:16:43;12.20;;;5.47;;
66487;SDS011;53304;54.550;18.526;2023-05-13T06:19:09;11.32;;;5.72;;
66487;SDS011;53304;54.550;18.526;2023-05-13T06:21:37;9.45;;;5.18;;
66487;SDS011;53304;54.550;18.526;2023-05-13T06:24:02;13.43;;;5.72;;
66487;SDS011;53304;54.550;18.526;2023-05-13T06:26:35;7.88;;;4.95;;
66487;SDS011;53304;54.550;18.526;2023-05-13T06:29:05;16.17;;;5.55;;
66487;SDS011;53304;54.550;18.526;2023-05-13T06:31:30;10.77;;;5.32;;
66487;SDS011;53304;54.550;18.526;2023-05-13T06:33:56;9.75;;;5.20;;
66487;SDS011;53304;54.550;18.526;2023-05-13T06:36:24;12.00;;;4.93;;
66487;SDS011;53304;54.550;18.526;2023-05-13T06:38:52;11.95;;;5.30;;
66487;SDS011;53304;54.550;18.526;2023-05-13T06:41:20;10.38;;;5.13;;
66487;SDS011;53304;54.550;18.526;2023-05-13T06:43:49;17.67;;;5.45;;
66487;SDS011;53304;54.550;18.526;2023-05-13T06:46:19;11.13;;;5.05;;
66487;SDS011;53304;54.550;18.526;2023-05-13T06:48:44;19.88;;;6.40;;
66487;SDS011;53304;54.550;18.526;2023-05-13T06:51:12;21.27;;;6.28;;
66487;SDS011;53304;54.550;18.526;2023-05-13T06:53:37;36.65;;;7.28;;
66487;SDS011;53304;54.550;18.526;2023-05-13T06:56:03;14.75;;;6.18;;
66487;SDS011;53304;54.550;18.526;2023-05-13T06:58:28;16.08;;;5.82;;
66487;SDS011;53304;54.550;18.526;2023-05-13T07:00:58;14.27;;;5.78;;
66487;SDS011;53304;54.550;18.526;2023-05-13T07:03:29;15.63;;;5.78;;
66487;SDS011;53304;54.550;18.526;2023-05-13T07:05:56;12.00;;;4.85;;
66487;SDS011;53304;54.550;18.526;2023-05-13T07:08:24;10.65;;;5.20;;
66487;SDS011;53304;54.550;18.526;2023-05-13T07:10:52;10.50;;;5.47;;
66487;SDS011;53304;54.550;18.526;2023-05-13T07:13:18;12.30;;;5.30;;
66487;SDS011;53304;54.550;18.526;2023-05-13T07:15:47;13.75;;;5.70;;
66487;SDS011;53304;54.550;18.526;2023-05-13T07:18:12;11.60;;;5.90;;
66487;SDS011;53304;54.550;18.526;2023-05-13T07:20:45;9.07;;;5.28;;
66487;SDS011;53304;54.550;18.526;2023-05-13T07:23:13;12.00;;;5.90;;
66487;SDS011;53304;54.550;18.526;2023-05-13T07:25:41;12.75;;;5.55;;
66487;SDS011;53304;54.550;18.526;2023-05-13T07:28:06;9.25;;;5.60;;
66487;SDS011;53304;54.550;18.526;2023-05-13T07:30:32;10.43;;;5.53;;
66487;SDS011;53304;54.550;18.526;2023-05-13T07:32:57;9.93;;;5.60;;
66487;SDS011;53304;54.550;18.526;2023-05-13T07:35:25;9.13;;;5.03;;
66487;SDS011;53304;54.550;18.526;2023-05-13T07:37:55;10.50;;;5.47;;
66487;SDS011;53304;54.550;18.526;2023-05-13T07:40:26;8.23;;;5.70;;
66487;SDS011;53304;54.550;18.526;2023-05-13T07:42:54;11.15;;;5.38;;
66487;SDS011;53304;54.550;18.526;2023-05-13T07:45:19;10.00;;;5.55;;
66487;SDS011;53304;54.550;18.526;2023-05-13T07:47:44;8.90;;;5.65;;
66487;SDS011;53304;54.550;18.526;2023-05-13T07:50:10;9.90;;;5.43;;
66487;SDS011;53304;54.550;18.526;2023-05-13T07:52:38;9.65;;;5.20;;
66487;SDS011;53304;54.550;18.526;2023-05-13T07:55:08;8.48;;;5.20;;
66487;SDS011;53304;54.550;18.526;2023-05-13T07:57:37;8.38;;;5.38;;
66487;SDS011;53304;54.550;18.526;2023-05-13T08:00:02;8.43;;;5.30;;
66487;SDS011;53304;54.550;18.526;2023-05-13T08:02:28;10.32;;;5.10;;
66487;SDS011;53304;54.550;18.526;2023-05-13T08:04:58;9.85;;;5.20;;
66487;SDS011;53304;54.550;18.526;2023-05-13T08:07:27;9.20;;;4.72;;
66487;SDS011;53304;54.550;18.526;2023-05-13T08:09:54;9.45;;;4.93;;
66487;SDS011;53304;54.550;18.526;2023-05-13T08:12:22;8.82;;;5.40;;
66487;SDS011;53304;54.550;18.526;2023-05-13T08:14:50;10.10;;;5.75;;
66487;SDS011;53304;54.550;18.526;2023-05-13T08:17:17;9.35;;;5.18;;
66487;SDS011;53304;54.550;18.526;2023-05-13T08:19:43;9.57;;;5.57;;
66487;SDS011;53304;54.550;18.526;2023-05-13T08:22:10;15.27;;;5.70;;
66487;SDS011;53304;54.550;18.526;2023-05-13T08:24:36;9.32;;;4.70;;
66487;SDS011;53304;54.550;18.526;2023-05-13T08:27:07;7.85;;;4.55;;
66487;SDS011;53304;54.550;18.526;2023-05-13T08:29:36;14.10;;;5.20;;
66487;SDS011;53304;54.550;18.526;2023-05-13T08:32:05;7.70;;;4.40;;
66487;SDS011;53304;54.550;18.526;2023-05-13T08:34:30;7.65;;;4.55;;
66487;SDS011;53304;54.550;18.526;2023-05-13T08:37:03;8.75;;;4.68;;
66487;SDS011;53304;54.550;18.526;2023-05-13T08:39:28;10.15;;;4.60;;
66487;SDS011;53304;54.550;18.526;2023-05-13T08:41:56;9.95;;;4.80;;
66487;SDS011;53304;54.550;18.526;2023-05-13T08:44:26;7.95;;;4.63;;
66487;SDS011;53304;54.550;18.526;2023-05-13T08:49:31;8.55;;;4.25;;
66487;SDS011;53304;54.550;18.526;2023-05-13T08:52:00;13.48;;;5.55;;
66487;SDS011;53304;54.550;18.526;2023-05-13T08:54:27;14.27;;;5.30;;
66487;SDS011;53304;54.550;18.526;2023-05-13T08:56:55;10.80;;;4.97;;
66487;SDS011;53304;54.550;18.526;2023-05-13T08:59:24;10.05;;;4.97;;
66487;SDS011;53304;54.550;18.526;2023-05-13T09:01:49;12.00;;;4.40;;
66487;SDS011;53304;54.550;18.526;2023-05-13T09:04:15;10.77;;;4.30;;
66487;SDS011;53304;54.550;18.526;2023-05-13T09:06:45;7.65;;;4.20;;
66487;SDS011;53304;54.550;18.526;2023-05-13T09:09:15;8.68;;;4.40;;
66487;SDS011;53304;54.550;18.526;2023-05-13T09:11:43;9.35;;;4.47;;
66487;SDS011;53304;54.550;18.526;2023-05-13T09:14:11;9.23;;;4.15;;
66487;SDS011;53304;54.550;18.526;2023-05-13T09:16:37;8.52;;;4.30;;
66487;SDS011;53304;54.550;18.526;2023-05-13T09:19:04;6.60;;;4.50;;
66487;SDS011;53304;54.550;18.526;2023-05-13T09:21:31;10.52;;;4.47;;
66487;SDS011;53304;54.550;18.526;2023-05-13T09:24:06;11.07;;;4.45;;
66487;SDS011;53304;54.550;18.526;2023-05-13T09:26:32;11.60;;;5.00;;
66487;SDS011;53304;54.550;18.526;2023-05-13T09:29:13;8.10;;;4.00;;
66487;SDS011;53304;54.550;18.526;2023-05-13T09:31:44;9.15;;;4.70;;
66487;SDS011;53304;54.550;18.526;2023-05-13T09:34:13;6.93;;;4.65;;
66487;SDS011;53304;54.550;18.526;2023-05-13T09:36:39;8.55;;;4.40;;
66487;SDS011;53304;54.550;18.526;2023-05-13T09:39:09;8.57;;;4.68;;
66487;SDS011;53304;54.550;18.526;2023-05-13T09:41:37;8.27;;;4.80;;
66487;SDS011;53304;54.550;18.526;2023-05-13T09:44:06;9.10;;;4.63;;
66487;SDS011;53304;54.550;18.526;2023-05-13T09:46:34;8.77;;;4.78;;
66487;SDS011;53304;54.550;18.526;2023-05-13T09:48:59;8.38;;;4.95;;
66487;SDS011;53304;54.550;18.526;2023-05-13T09:51:26;8.20;;;5.00;;
66487;SDS011;53304;54.550;18.526;2023-05-13T09:54:01;8.55;;;5.07;;
66487;SDS011;53304;54.550;18.526;2023-05-13T09:56:33;7.93;;;4.88;;
66487;SDS011;53304;54.550;18.526;2023-05-13T09:59:02;8.57;;;4.70;;
66487;SDS011;53304;54.550;18.526;2023-05-13T10:01:27;9.80;;;5.10;;
66487;SDS011;53304;54.550;18.526;2023-05-13T10:03:53;9.82;;;5.30;;
66487;SDS011;53304;54.550;18.526;2023-05-13T10:06:23;11.05;;;5.20;;
66487;SDS011;53304;54.550;18.526;2023-05-13T10:08:54;9.05;;;4.90;;
66487;SDS011;53304;54.550;18.526;2023-05-13T10:11:25;9.13;;;4.50;;
66487;SDS011;53304;54.550;18.526;2023-05-13T10:13:58;8.10;;;4.70;;
66487;SDS011;53304;54.550;18.526;2023-05-13T10:16:27;8.43;;;4.53;;
66487;SDS011;53304;54.550;18.526;2023-05-13T10:19:00;8.90;;;5.00;;
66487;SDS011;53304;54.550;18.526;2023-05-13T10:21:30;10.48;;;4.85;;
66487;SDS011;53304;54.550;18.526;2023-05-13T10:23:56;9.90;;;4.60;;
66487;SDS011;53304;54.550;18.526;2023-05-13T10:26:22;9.80;;;4.85;;
66487;SDS011;53304;54.550;18.526;2023-05-13T10:28:51;9.57;;;4.72;;
66487;SDS011;53304;54.550;18.526;2023-05-13T10:31:18;6.22;;;4.35;;
66487;SDS011;53304;54.550;18.526;2023-05-13T10:33:44;9.23;;;4.90;;
66487;SDS011;53304;54.550;18.526;2023-05-13T10:44:14;8.68;;;4.68;;
66487;SDS011;53304;54.550;18.526;2023-05-13T10:46:41;8.02;;;4.10;;
66487;SDS011;53304;54.550;18.526;2023-05-13T10:49:07;8.50;;;4.50;;
66487;SDS011;53304;54.550;18.526;2023-05-13T10:51:44;7.97;;;4.30;;
66487;SDS011;53304;54.550;18.526;2023-05-13T10:54:21;5.95;;;3.70;;
66487;SDS011;53304;54.550;18.526;2023-05-13T10:56:56;8.88;;;4.75;;
66487;SDS011;53304;54.550;18.526;2023-05-13T10:59:25;7.70;;;4.00;;
66487;SDS011;53304;54.550;18.526;2023-05-13T11:01:54;9.95;;;3.88;;
66487;SDS011;53304;54.550;18.526;2023-05-13T11:04:22;7.68;;;4.13;;
66487;SDS011;53304;54.550;18.526;2023-05-13T11:06:47;8.60;;;4.07;;
66487;SDS011;53304;54.550;18.526;2023-05-13T11:11:47;8.32;;;4.13;;
66487;SDS011;53304;54.550;18.526;2023-05-13T11:14:23;6.13;;;3.80;;
66487;SDS011;53304;54.550;18.526;2023-05-13T11:19:30;6.95;;;3.70;;
66487;SDS011;53304;54.550;18.526;2023-05-13T11:21:57;7.07;;;3.88;;
66487;SDS011;53304;54.550;18.526;2023-05-13T11:24:32;10.32;;;4.63;;
66487;SDS011;53304;54.550;18.526;2023-05-13T11:27:11;9.25;;;4.15;;
66487;SDS011;53304;54.550;18.526;2023-05-13T11:29:46;10.02;;;3.83;;
66487;SDS011;53304;54.550;18.526;2023-05-13T11:32:12;7.93;;;3.88;;
66487;SDS011;53304;54.550;18.526;2023-05-13T11:34:38;5.82;;;3.55;;
66487;SDS011;53304;54.550;18.526;2023-05-13T11:37:16;6.60;;;3.85;;
66487;SDS011;53304;54.550;18.526;2023-05-13T11:39:44;5.43;;;3.40;;
66487;SDS011;53304;54.550;18.526;2023-05-13T11:42:10;6.85;;;3.50;;
66487;SDS011;53304;54.550;18.526;2023-05-13T11:44:36;7.10;;;3.75;;
66487;SDS011;53304;54.550;18.526;2023-05-13T11:47:09;8.13;;;3.47;;
66487;SDS011;53304;54.550;18.526;2023-05-13T11:52:16;5.55;;;3.58;;
66487;SDS011;53304;54.550;18.526;2023-05-13T11:54:44;8.00;;;3.83;;
66487;SDS011;53304;54.550;18.526;2023-05-13T11:59:58;6.28;;;3.53;;
66487;SDS011;53304;54.550;18.526;2023-05-13T12:02:26;7.80;;;3.33;;
66487;SDS011;53304;54.550;18.526;2023-05-13T12:04:54;8.00;;;3.33;;
66487;SDS011;53304;54.550;18.526;2023-05-13T12:07:25;5.25;;;3.33;;
66487;SDS011;53304;54.550;18.526;2023-05-13T12:09:51;7.65;;;4.03;;
66487;SDS011;53304;54.550;18.526;2023-05-13T12:12:20;5.90;;;3.78;;
66487;SDS011;53304;54.550;18.526;2023-05-13T12:14:48;7.78;;;3.50;;
66487;SDS011;53304;54.550;18.526;2023-05-13T12:17:17;6.28;;;3.42;;
66487;SDS011;53304;54.550;18.526;2023-05-13T12:20:03;5.85;;;3.33;;
66487;SDS011;53304;54.550;18.526;2023-05-13T12:22:36;6.43;;;3.45;;
66487;SDS011;53304;54.550;18.526;2023-05-13T12:28:09;8.68;;;3.80;;
66487;SDS011;53304;54.550;18.526;2023-05-13T12:30:41;8.73;;;3.90;;
66487;SDS011;53304;54.550;18.526;2023-05-13T12:33:14;6.28;;;3.10;;
66487;SDS011;53304;54.550;18.526;2023-05-13T12:35:45;5.63;;;3.60;;
66487;SDS011;53304;54.550;18.526;2023-05-13T12:38:13;6.63;;;3.42;;
66487;SDS011;53304;54.550;18.526;2023-05-13T12:40:43;6.30;;;3.38;;
66487;SDS011;53304;54.550;18.526;2023-05-13T12:43:17;7.20;;;3.85;;
66487;SDS011;53304;54.550;18.526;2023-05-13T12:45:44;8.23;;;3.63;;
66487;SDS011;53304;54.550;18.526;2023-05-13T12:48:15;8.23;;;3.58;;
66487;SDS011;53304;54.550;18.526;2023-05-13T12:50:42;8.10;;;3.50;;
66487;SDS011;53304;54.550;18.526;2023-05-13T12:53:08;6.30;;;3.30;;
66487;SDS011;53304;54.550;18.526;2023-05-13T12:55:39;5.97;;;3.53;;
66487;SDS011;53304;54.550;18.526;2023-05-13T12:58:09;9.05;;;3.92;;
66487;SDS011;53304;54.550;18.526;2023-05-13T13:00:37;7.25;;;3.60;;
66487;SDS011;53304;54.550;18.526;2023-05-13T13:03:02;6.32;;;3.75;;
66487;SDS011;53304;54.550;18.526;2023-05-13T13:05:27;7.25;;;3.78;;
66487;SDS011;53304;54.550;18.526;2023-05-13T13:07:53;7.70;;;3.42;;
66487;SDS011;53304;54.550;18.526;2023-05-13T13:10:21;7.57;;;3.70;;
66487;SDS011;53304;54.550;18.526;2023-05-13T13:12:48;7.72;;;4.05;;
66487;SDS011;53304;54.550;18.526;2023-05-13T13:15:16;8.38;;;3.75;;
66487;SDS011;53304;54.550;18.526;2023-05-13T13:17:42;9.52;;;4.28;;
66487;SDS011;53304;54.550;18.526;2023-05-13T13:20:07;8.73;;;3.55;;
66487;SDS011;53304;54.550;18.526;2023-05-13T13:22:36;8.55;;;3.95;;
66487;SDS011;53304;54.550;18.526;2023-05-13T13:25:05;8.88;;;3.83;;
66487;SDS011;53304;54.550;18.526;2023-05-13T13:27:31;9.35;;;3.90;;
66487;SDS011;53304;54.550;18.526;2023-05-13T13:29:59;7.22;;;3.60;;
66487;SDS011;53304;54.550;18.526;2023-05-13T13:32:24;6.90;;;3.33;;
66487;SDS011;53304;54.550;18.526;2023-05-13T13:34:52;7.53;;;3.75;;
66487;SDS011;53304;54.550;18.526;2023-05-13T13:37:18;8.18;;;3.47;;
66487;SDS011;53304;54.550;18.526;2023-05-13T13:39:43;8.48;;;3.45;;
66487;SDS011;53304;54.550;18.526;2023-05-13T13:42:08;7.53;;;3.60;;
66487;SDS011;53304;54.550;18.526;2023-05-13T13:44:34;7.13;;;3.42;;
66487;SDS011;53304;54.550;18.526;2023-05-13T13:47:01;6.45;;;4.00;;
66487;SDS011;53304;54.550;18.526;2023-05-13T13:49:26;7.97;;;3.92;;
66487;SDS011;53304;54.550;18.526;2023-05-13T13:51:54;9.45;;;4.55;;
66487;SDS011;53304;54.550;18.526;2023-05-13T13:54:20;6.90;;;4.00;;
66487;SDS011;53304;54.550;18.526;2023-05-13T13:56:47;9.88;;;4.32;;
66487;SDS011;53304;54.550;18.526;2023-05-13T13:59:15;8.00;;;4.35;;
66487;SDS011;53304;54.550;18.526;2023-05-13T14:01:45;12.65;;;4.20;;
66487;SDS011;53304;54.550;18.526;2023-05-13T14:04:15;7.65;;;4.13;;
66487;SDS011;53304;54.550;18.526;2023-05-13T14:06:43;8.40;;;3.92;;
66487;SDS011;53304;54.550;18.526;2023-05-13T14:09:09;7.72;;;4.10;;
66487;SDS011;53304;54.550;18.526;2023-05-13T14:11:39;12.00;;;3.97;;
66487;SDS011;53304;54.550;18.526;2023-05-13T14:14:07;6.57;;;3.60;;
66487;SDS011;53304;54.550;18.526;2023-05-13T14:16:37;11.50;;;4.32;;
66487;SDS011;53304;54.550;18.526;2023-05-13T14:19:02;6.45;;;3.10;;
66487;SDS011;53304;54.550;18.526;2023-05-13T14:21:28;6.57;;;3.60;;
66487;SDS011;53304;54.550;18.526;2023-05-13T14:23:53;8.48;;;4.25;;
66487;SDS011;53304;54.550;18.526;2023-05-13T14:26:21;9.07;;;4.05;;
66487;SDS011;53304;54.550;18.526;2023-05-13T14:28:52;10.60;;;3.92;;
66487;SDS011;53304;54.550;18.526;2023-05-13T14:31:18;8.35;;;4.07;;
66487;SDS011;53304;54.550;18.526;2023-05-13T14:33:46;11.50;;;4.28;;
66487;SDS011;53304;54.550;18.526;2023-05-13T14:36:14;9.95;;;4.40;;
66487;SDS011;53304;54.550;18.526;2023-05-13T14:38:44;7.15;;;3.92;;
66487;SDS011;53304;54.550;18.526;2023-05-13T14:41:10;6.40;;;3.63;;
66487;SDS011;53304;54.550;18.526;2023-05-13T14:43:39;7.97;;;3.67;;
66487;SDS011;53304;54.550;18.526;2023-05-13T14:46:06;7.47;;;3.88;;
66487;SDS011;53304;54.550;18.526;2023-05-13T14:48:34;8.63;;;3.75;;
66487;SDS011;53304;54.550;18.526;2023-05-13T14:51:02;7.13;;;3.70;;
66487;SDS011;53304;54.550;18.526;2023-05-13T14:53:28;7.40;;;3.55;;
66487;SDS011;53304;54.550;18.526;2023-05-13T14:55:53;10.02;;;3.85;;
66487;SDS011;53304;54.550;18.526;2023-05-13T14:58:18;6.90;;;3.55;;
66487;SDS011;53304;54.550;18.526;2023-05-13T15:00:44;8.68;;;3.67;;
66487;SDS011;53304;54.550;18.526;2023-05-13T15:03:09;11.73;;;4.32;;
66487;SDS011;53304;54.550;18.526;2023-05-13T15:05:39;6.18;;;3.35;;
66487;SDS011;53304;54.550;18.526;2023-05-13T15:08:08;7.18;;;4.03;;
66487;SDS011;53304;54.550;18.526;2023-05-13T15:10:33;8.63;;;3.75;;